sensor_id;sensor_type;location;lat;lon;timestamp;temperature;humidity
68177;DHT22;56478;50.982;7.032;2024-03-06T00:02:19;8.28;89.02
68177;DHT22;56478;50.982;7.032;2024-03-06T00:04:45;8.29;88.95
68177;DHT22;56478;50.982;7.032;2024-03-06T00:07:10;8.25;89.05
68177;DHT22;56478;50.982;7.032;2024-03-06T00:09:36;8.22;89.11
68177;DHT22;56478;50.982;7.032;2024-03-06T00:12:02;8.25;89.12
68177;DHT22;56478;50.982;7.032;2024-03-06T00:14:27;8.25;89.28
68177;DHT22;56478;50.982;7.032;2024-03-06T00:16:53;8.27;88.92
68177;DHT22;56478;50.982;7.032;2024-03-06T00:19:21;8.24;88.81
68177;DHT22;56478;50.982;7.032;2024-03-06T00:21:47;8.25;88.76
68177;DHT22;56478;50.982;7.032;2024-03-06T00:24:13;8.29;88.91
68177;DHT22;56478;50.982;7.032;2024-03-06T00:26:44;8.22;89.18
68177;DHT22;56478;50.982;7.032;2024-03-06T00:29:09;8.20;88.94
68177;DHT22;56478;50.982;7.032;2024-03-06T00:31:35;8.20;88.83
68177;DHT22;56478;50.982;7.032;2024-03-06T00:34:01;8.14;88.99
68177;DHT22;56478;50.982;7.032;2024-03-06T00:36:27;8.08;89.06
68177;DHT22;56478;50.982;7.032;2024-03-06T00:38:53;8.12;89.17
68177;DHT22;56478;50.982;7.032;2024-03-06T00:41:18;8.12;88.98
68177;DHT22;56478;50.982;7.032;2024-03-06T00:43:44;8.12;89.17
68177;DHT22;56478;50.982;7.032;2024-03-06T00:46:10;8.11;89.21
68177;DHT22;56478;50.982;7.032;2024-03-06T00:48:36;8.10;89.45
68177;DHT22;56478;50.982;7.032;2024-03-06T00:51:05;8.14;89.30
68177;DHT22;56478;50.982;7.032;2024-03-06T00:53:32;8.15;89.22
68177;DHT22;56478;50.982;7.032;2024-03-06T00:55:57;8.17;89.31
68177;DHT22;56478;50.982;7.032;2024-03-06T00:58:23;8.14;89.08
68177;DHT22;56478;50.982;7.032;2024-03-06T01:00:49;8.07;89.08
68177;DHT22;56478;50.982;7.032;2024-03-06T01:03:14;8.05;89.26
68177;DHT22;56478;50.982;7.032;2024-03-06T01:05:40;8.01;89.55
68177;DHT22;56478;50.982;7.032;2024-03-06T01:08:06;8.01;89.44
68177;DHT22;56478;50.982;7.032;2024-03-06T01:10:31;8.05;89.27
68177;DHT22;56478;50.982;7.032;2024-03-06T01:12:57;7.96;89.19
68177;DHT22;56478;50.982;7.032;2024-03-06T01:15:23;7.83;89.55
68177;DHT22;56478;50.982;7.032;2024-03-06T01:17:49;7.82;89.82
68177;DHT22;56478;50.982;7.032;2024-03-06T01:20:15;7.82;90.19
68177;DHT22;56478;50.982;7.032;2024-03-06T01:22:40;7.87;89.74
68177;DHT22;56478;50.982;7.032;2024-03-06T01:25:06;7.87;89.72
68177;DHT22;56478;50.982;7.032;2024-03-06T01:27:32;7.87;89.78
68177;DHT22;56478;50.982;7.032;2024-03-06T01:29:58;7.82;89.70
68177;DHT22;56478;50.982;7.032;2024-03-06T01:32:24;7.82;89.44
68177;DHT22;56478;50.982;7.032;2024-03-06T01:34:50;7.68;89.39
68177;DHT22;56478;50.982;7.032;2024-03-06T01:37:15;7.58;89.59
68177;DHT22;56478;50.982;7.032;2024-03-06T01:39:41;7.47;89.99
68177;DHT22;56478;50.982;7.032;2024-03-06T01:42:07;7.38;89.88
68177;DHT22;56478;50.982;7.032;2024-03-06T01:44:32;7.32;90.19
68177;DHT22;56478;50.982;7.032;2024-03-06T01:46:58;7.27;90.37
68177;DHT22;56478;50.982;7.032;2024-03-06T01:49:24;7.25;90.39
68177;DHT22;56478;50.982;7.032;2024-03-06T01:51:54;7.27;90.11
68177;DHT22;56478;50.982;7.032;2024-03-06T01:54:21;7.21;90.56
68177;DHT22;56478;50.982;7.032;2024-03-06T01:56:48;7.18;90.37
68177;DHT22;56478;50.982;7.032;2024-03-06T01:59:15;7.07;90.16
68177;DHT22;56478;50.982;7.032;2024-03-06T02:01:42;6.88;90.10
68177;DHT22;56478;50.982;7.032;2024-03-06T02:04:08;6.78;90.17
68177;DHT22;56478;50.982;7.032;2024-03-06T02:06:40;6.79;90.15
68177;DHT22;56478;50.982;7.032;2024-03-06T02:09:07;6.78;89.91
68177;DHT22;56478;50.982;7.032;2024-03-06T02:11:33;6.73;90.09
68177;DHT22;56478;50.982;7.032;2024-03-06T02:13:59;6.78;89.97
68177;DHT22;56478;50.982;7.032;2024-03-06T02:16:25;6.79;89.77
68177;DHT22;56478;50.982;7.032;2024-03-06T02:18:55;6.78;89.84
68177;DHT22;56478;50.982;7.032;2024-03-06T02:21:25;6.86;89.50
68177;DHT22;56478;50.982;7.032;2024-03-06T02:23:51;6.86;89.31
68177;DHT22;56478;50.982;7.032;2024-03-06T02:26:21;6.95;89.27
68177;DHT22;56478;50.982;7.032;2024-03-06T02:28:52;7.07;89.29
68177;DHT22;56478;50.982;7.032;2024-03-06T02:31:19;7.07;88.92
68177;DHT22;56478;50.982;7.032;2024-03-06T02:33:48;7.01;88.63
68177;DHT22;56478;50.982;7.032;2024-03-06T02:36:14;6.99;88.68
68177;DHT22;56478;50.982;7.032;2024-03-06T02:38:41;7.01;88.80
68177;DHT22;56478;50.982;7.032;2024-03-06T02:41:06;7.10;88.86
68177;DHT22;56478;50.982;7.032;2024-03-06T02:43:34;7.13;88.48
68177;DHT22;56478;50.982;7.032;2024-03-06T02:45:59;7.14;88.71
68177;DHT22;56478;50.982;7.032;2024-03-06T02:48:25;7.15;88.68
68177;DHT22;56478;50.982;7.032;2024-03-06T02:50:51;7.23;88.64
68177;DHT22;56478;50.982;7.032;2024-03-06T02:53:17;7.30;88.80
68177;DHT22;56478;50.982;7.032;2024-03-06T02:55:42;7.27;88.73
68177;DHT22;56478;50.982;7.032;2024-03-06T02:58:08;7.38;88.53
68177;DHT22;56478;50.982;7.032;2024-03-06T03:00:34;7.36;88.71
68177;DHT22;56478;50.982;7.032;2024-03-06T03:02:59;7.40;88.62
68177;DHT22;56478;50.982;7.032;2024-03-06T03:05:25;7.34;88.67
68177;DHT22;56478;50.982;7.032;2024-03-06T03:07:51;7.36;88.98
68177;DHT22;56478;50.982;7.032;2024-03-06T03:10:17;7.44;88.81
68177;DHT22;56478;50.982;7.032;2024-03-06T03:12:42;7.47;88.49
68177;DHT22;56478;50.982;7.032;2024-03-06T03:15:09;7.45;88.65
68177;DHT22;56478;50.982;7.032;2024-03-06T03:17:35;7.47;88.80
68177;DHT22;56478;50.982;7.032;2024-03-06T03:20:04;7.40;88.99
68177;DHT22;56478;50.982;7.032;2024-03-06T03:22:39;7.44;88.76
68177;DHT22;56478;50.982;7.032;2024-03-06T03:25:12;7.40;88.98
68177;DHT22;56478;50.982;7.032;2024-03-06T03:27:41;7.40;89.05
68177;DHT22;56478;50.982;7.032;2024-03-06T03:30:11;7.40;89.14
68177;DHT22;56478;50.982;7.032;2024-03-06T03:32:38;7.32;89.15
68177;DHT22;56478;50.982;7.032;2024-03-06T03:35:05;7.30;89.19
68177;DHT22;56478;50.982;7.032;2024-03-06T03:37:31;7.28;89.09
68177;DHT22;56478;50.982;7.032;2024-03-06T03:39:57;7.27;89.06
68177;DHT22;56478;50.982;7.032;2024-03-06T03:42:22;7.25;89.41
68177;DHT22;56478;50.982;7.032;2024-03-06T03:44:48;7.25;89.39
68177;DHT22;56478;50.982;7.032;2024-03-06T03:47:14;7.23;89.10
68177;DHT22;56478;50.982;7.032;2024-03-06T03:49:40;7.24;89.26
68177;DHT22;56478;50.982;7.032;2024-03-06T03:52:05;7.31;89.54
68177;DHT22;56478;50.982;7.032;2024-03-06T03:54:32;7.27;89.65
68177;DHT22;56478;50.982;7.032;2024-03-06T03:56:58;7.32;89.66
68177;DHT22;56478;50.982;7.032;2024-03-06T03:59:25;7.40;89.60
68177;DHT22;56478;50.982;7.032;2024-03-06T04:01:51;7.42;89.26
68177;DHT22;56478;50.982;7.032;2024-03-06T04:04:17;7.41;89.13
68177;DHT22;56478;50.982;7.032;2024-03-06T04:06:42;7.47;88.81
68177;DHT22;56478;50.982;7.032;2024-03-06T04:09:08;7.45;89.24
68177;DHT22;56478;50.982;7.032;2024-03-06T04:11:37;7.47;89.14
68177;DHT22;56478;50.982;7.032;2024-03-06T04:14:04;7.47;88.99
68177;DHT22;56478;50.982;7.032;2024-03-06T04:16:30;7.42;89.09
68177;DHT22;56478;50.982;7.032;2024-03-06T04:18:55;7.45;89.16
68177;DHT22;56478;50.982;7.032;2024-03-06T04:21:21;7.45;89.06
68177;DHT22;56478;50.982;7.032;2024-03-06T04:23:48;7.48;89.18
68177;DHT22;56478;50.982;7.032;2024-03-06T04:26:13;7.49;89.21
68177;DHT22;56478;50.982;7.032;2024-03-06T04:28:39;7.44;89.23
68177;DHT22;56478;50.982;7.032;2024-03-06T04:31:05;7.42;89.21
68177;DHT22;56478;50.982;7.032;2024-03-06T04:33:30;7.36;89.08
68177;DHT22;56478;50.982;7.032;2024-03-06T04:35:56;7.38;89.17
68177;DHT22;56478;50.982;7.032;2024-03-06T04:38:22;7.38;89.32
68177;DHT22;56478;50.982;7.032;2024-03-06T04:40:47;7.35;89.40
68177;DHT22;56478;50.982;7.032;2024-03-06T04:43:13;7.42;89.41
68177;DHT22;56478;50.982;7.032;2024-03-06T04:45:39;7.41;89.22
68177;DHT22;56478;50.982;7.032;2024-03-06T04:48:05;7.44;89.47
68177;DHT22;56478;50.982;7.032;2024-03-06T04:50:31;7.44;89.33
68177;DHT22;56478;50.982;7.032;2024-03-06T04:52:58;7.45;89.10
68177;DHT22;56478;50.982;7.032;2024-03-06T04:55:23;7.49;89.24
68177;DHT22;56478;50.982;7.032;2024-03-06T04:57:52;7.55;88.99
68177;DHT22;56478;50.982;7.032;2024-03-06T05:00:18;7.52;89.01
68177;DHT22;56478;50.982;7.032;2024-03-06T05:02:44;7.62;89.00
68177;DHT22;56478;50.982;7.032;2024-03-06T05:05:10;7.65;88.74
68177;DHT22;56478;50.982;7.032;2024-03-06T05:07:36;7.69;88.62
68177;DHT22;56478;50.982;7.032;2024-03-06T05:10:01;7.66;88.57
68177;DHT22;56478;50.982;7.032;2024-03-06T05:12:27;7.59;88.83
68177;DHT22;56478;50.982;7.032;2024-03-06T05:14:54;7.52;89.02
68177;DHT22;56478;50.982;7.032;2024-03-06T05:17:20;7.58;89.08
68177;DHT22;56478;50.982;7.032;2024-03-06T05:19:46;7.56;88.92
68177;DHT22;56478;50.982;7.032;2024-03-06T05:22:16;7.56;88.73
68177;DHT22;56478;50.982;7.032;2024-03-06T05:24:42;7.56;88.80
68177;DHT22;56478;50.982;7.032;2024-03-06T05:27:09;7.55;88.58
68177;DHT22;56478;50.982;7.032;2024-03-06T05:29:36;7.51;88.93
68177;DHT22;56478;50.982;7.032;2024-03-06T05:32:02;7.55;88.39
68177;DHT22;56478;50.982;7.032;2024-03-06T05:34:29;7.49;88.66
68177;DHT22;56478;50.982;7.032;2024-03-06T05:36:55;7.47;88.96
68177;DHT22;56478;50.982;7.032;2024-03-06T05:39:21;7.49;88.85
68177;DHT22;56478;50.982;7.032;2024-03-06T05:41:46;7.44;89.05
68177;DHT22;56478;50.982;7.032;2024-03-06T05:44:12;7.44;88.92
68177;DHT22;56478;50.982;7.032;2024-03-06T05:46:38;7.45;88.62
68177;DHT22;56478;50.982;7.032;2024-03-06T05:49:03;7.41;88.88
68177;DHT22;56478;50.982;7.032;2024-03-06T05:51:30;7.42;88.84
68177;DHT22;56478;50.982;7.032;2024-03-06T05:53:56;7.38;88.82
68177;DHT22;56478;50.982;7.032;2024-03-06T05:56:22;7.27;88.65
68177;DHT22;56478;50.982;7.032;2024-03-06T05:58:48;7.21;88.91
68177;DHT22;56478;50.982;7.032;2024-03-06T06:01:17;7.17;88.77
68177;DHT22;56478;50.982;7.032;2024-03-06T06:03:47;7.17;88.31
68177;DHT22;56478;50.982;7.032;2024-03-06T06:06:17;7.17;88.73
68177;DHT22;56478;50.982;7.032;2024-03-06T06:08:43;7.14;88.96
68177;DHT22;56478;50.982;7.032;2024-03-06T06:11:10;7.17;89.45
68177;DHT22;56478;50.982;7.032;2024-03-06T06:13:35;7.17;89.14
68177;DHT22;56478;50.982;7.032;2024-03-06T06:16:01;7.24;88.73
68177;DHT22;56478;50.982;7.032;2024-03-06T06:18:29;7.31;88.08
68177;DHT22;56478;50.982;7.032;2024-03-06T06:20:57;7.27;88.42
68177;DHT22;56478;50.982;7.032;2024-03-06T06:23:23;7.31;88.14
68177;DHT22;56478;50.982;7.032;2024-03-06T06:25:49;7.38;88.11
68177;DHT22;56478;50.982;7.032;2024-03-06T06:28:14;7.35;88.56
68177;DHT22;56478;50.982;7.032;2024-03-06T06:30:40;7.36;88.58
68177;DHT22;56478;50.982;7.032;2024-03-06T06:33:06;7.40;88.00
68177;DHT22;56478;50.982;7.032;2024-03-06T06:35:33;7.42;88.68
68177;DHT22;56478;50.982;7.032;2024-03-06T06:38:00;7.42;88.32
68177;DHT22;56478;50.982;7.032;2024-03-06T06:40:26;7.47;88.61
68177;DHT22;56478;50.982;7.032;2024-03-06T06:42:53;7.52;88.28
68177;DHT22;56478;50.982;7.032;2024-03-06T06:45:20;7.61;87.77
68177;DHT22;56478;50.982;7.032;2024-03-06T06:47:46;7.75;87.62
68177;DHT22;56478;50.982;7.032;2024-03-06T06:50:12;7.90;87.04
68177;DHT22;56478;50.982;7.032;2024-03-06T06:52:38;8.07;86.71
68177;DHT22;56478;50.982;7.032;2024-03-06T06:55:06;8.15;85.99
68177;DHT22;56478;50.982;7.032;2024-03-06T06:57:32;8.27;85.19
68177;DHT22;56478;50.982;7.032;2024-03-06T07:00:02;8.20;85.55
68177;DHT22;56478;50.982;7.032;2024-03-06T07:02:48;8.24;84.56
68177;DHT22;56478;50.982;7.032;2024-03-06T07:05:14;8.17;84.83
68177;DHT22;56478;50.982;7.032;2024-03-06T07:07:40;8.12;84.63
68177;DHT22;56478;50.982;7.032;2024-03-06T07:10:06;8.04;85.19
68177;DHT22;56478;50.982;7.032;2024-03-06T07:12:32;8.03;85.51
68177;DHT22;56478;50.982;7.032;2024-03-06T07:14:58;7.91;86.07
68177;DHT22;56478;50.982;7.032;2024-03-06T07:17:28;7.66;87.05
68177;DHT22;56478;50.982;7.032;2024-03-06T07:19:53;7.72;86.52
68177;DHT22;56478;50.982;7.032;2024-03-06T07:22:19;7.77;85.97
68177;DHT22;56478;50.982;7.032;2024-03-06T07:24:45;7.51;86.39
68177;DHT22;56478;50.982;7.032;2024-03-06T07:27:11;7.65;86.46
68177;DHT22;56478;50.982;7.032;2024-03-06T07:29:37;7.66;86.65
68177;DHT22;56478;50.982;7.032;2024-03-06T07:32:03;7.66;86.41
68177;DHT22;56478;50.982;7.032;2024-03-06T07:34:30;7.69;86.25
68177;DHT22;56478;50.982;7.032;2024-03-06T07:36:56;7.63;86.41
68177;DHT22;56478;50.982;7.032;2024-03-06T07:39:23;7.85;85.67
68177;DHT22;56478;50.982;7.032;2024-03-06T07:41:49;7.87;84.88
68177;DHT22;56478;50.982;7.032;2024-03-06T07:44:14;7.87;85.65
68177;DHT22;56478;50.982;7.032;2024-03-06T07:46:40;7.93;85.44
68177;DHT22;56478;50.982;7.032;2024-03-06T07:49:05;8.11;84.57
68177;DHT22;56478;50.982;7.032;2024-03-06T07:51:32;8.27;84.62
68177;DHT22;56478;50.982;7.032;2024-03-06T07:53:57;8.27;84.71
68177;DHT22;56478;50.982;7.032;2024-03-06T07:56:27;8.45;84.14
68177;DHT22;56478;50.982;7.032;2024-03-06T07:58:53;8.39;84.36
68177;DHT22;56478;50.982;7.032;2024-03-06T08:01:19;8.37;83.35
68177;DHT22;56478;50.982;7.032;2024-03-06T08:03:46;8.49;83.32
68177;DHT22;56478;50.982;7.032;2024-03-06T08:06:12;8.73;82.63
68177;DHT22;56478;50.982;7.032;2024-03-06T08:08:41;8.87;82.29
68177;DHT22;56478;50.982;7.032;2024-03-06T08:11:06;9.32;80.31
68177;DHT22;56478;50.982;7.032;2024-03-06T08:13:32;9.11;80.18
68177;DHT22;56478;50.982;7.032;2024-03-06T08:15:58;9.28;80.26
68177;DHT22;56478;50.982;7.032;2024-03-06T08:18:23;9.52;79.29
68177;DHT22;56478;50.982;7.032;2024-03-06T08:20:49;10.05;77.60
68177;DHT22;56478;50.982;7.032;2024-03-06T08:23:14;10.78;74.67
68177;DHT22;56478;50.982;7.032;2024-03-06T08:25:40;11.87;72.74
68177;DHT22;56478;50.982;7.032;2024-03-06T08:28:06;13.30;67.41
68177;DHT22;56478;50.982;7.032;2024-03-06T08:30:32;14.54;63.47
68177;DHT22;56478;50.982;7.032;2024-03-06T08:32:58;14.51;61.47
68177;DHT22;56478;50.982;7.032;2024-03-06T08:35:23;15.12;58.64
68177;DHT22;56478;50.982;7.032;2024-03-06T08:37:50;15.13;60.56
68177;DHT22;56478;50.982;7.032;2024-03-06T08:40:16;15.83;58.20
68177;DHT22;56478;50.982;7.032;2024-03-06T08:42:49;16.86;55.20
68177;DHT22;56478;50.982;7.032;2024-03-06T08:45:14;17.17;53.71
68177;DHT22;56478;50.982;7.032;2024-03-06T08:47:40;17.69;53.73
68177;DHT22;56478;50.982;7.032;2024-03-06T08:50:06;17.99;51.49
68177;DHT22;56478;50.982;7.032;2024-03-06T08:52:36;17.55;53.09
68177;DHT22;56478;50.982;7.032;2024-03-06T08:55:02;17.97;52.22
68177;DHT22;56478;50.982;7.032;2024-03-06T08:57:34;19.80;47.57
68177;DHT22;56478;50.982;7.032;2024-03-06T09:00:02;19.11;47.17
68177;DHT22;56478;50.982;7.032;2024-03-06T09:02:28;18.97;47.77
68177;DHT22;56478;50.982;7.032;2024-03-06T09:04:54;18.82;47.82
68177;DHT22;56478;50.982;7.032;2024-03-06T09:07:20;19.17;47.95
68177;DHT22;56478;50.982;7.032;2024-03-06T09:09:49;20.13;46.05
68177;DHT22;56478;50.982;7.032;2024-03-06T09:12:15;20.11;45.64
68177;DHT22;56478;50.982;7.032;2024-03-06T09:14:41;20.49;44.77
68177;DHT22;56478;50.982;7.032;2024-03-06T09:17:07;20.37;45.73
68177;DHT22;56478;50.982;7.032;2024-03-06T09:19:36;20.34;46.49
68177;DHT22;56478;50.982;7.032;2024-03-06T09:22:01;20.48;45.18
68177;DHT22;56478;50.982;7.032;2024-03-06T09:24:28;21.94;42.34
68177;DHT22;56478;50.982;7.032;2024-03-06T09:26:54;21.77;42.01
68177;DHT22;56478;50.982;7.032;2024-03-06T09:29:20;21.48;43.79
68177;DHT22;56478;50.982;7.032;2024-03-06T09:31:46;20.83;45.21
68177;DHT22;56478;50.982;7.032;2024-03-06T09:34:13;21.35;44.65
68177;DHT22;56478;50.982;7.032;2024-03-06T09:36:40;20.65;44.70
68177;DHT22;56478;50.982;7.032;2024-03-06T09:39:09;19.42;47.01
68177;DHT22;56478;50.982;7.032;2024-03-06T09:41:34;17.76;52.36
68177;DHT22;56478;50.982;7.032;2024-03-06T09:44:00;19.65;47.35
68177;DHT22;56478;50.982;7.032;2024-03-06T09:46:26;19.92;46.39
68177;DHT22;56478;50.982;7.032;2024-03-06T09:48:52;19.14;47.72
68177;DHT22;56478;50.982;7.032;2024-03-06T09:51:18;16.65;54.05
68177;DHT22;56478;50.982;7.032;2024-03-06T09:53:46;15.61;58.83
68177;DHT22;56478;50.982;7.032;2024-03-06T09:56:17;15.07;60.03
68177;DHT22;56478;50.982;7.032;2024-03-06T09:58:42;15.51;58.61
68177;DHT22;56478;50.982;7.032;2024-03-06T10:01:08;15.50;58.55
68177;DHT22;56478;50.982;7.032;2024-03-06T10:03:37;16.03;57.29
68177;DHT22;56478;50.982;7.032;2024-03-06T10:06:03;16.02;57.79
68177;DHT22;56478;50.982;7.032;2024-03-06T10:08:28;16.00;58.37
68177;DHT22;56478;50.982;7.032;2024-03-06T10:10:54;17.05;55.62
68177;DHT22;56478;50.982;7.032;2024-03-06T10:13:24;17.45;54.45
68177;DHT22;56478;50.982;7.032;2024-03-06T10:16:03;18.41;52.06
68177;DHT22;56478;50.982;7.032;2024-03-06T10:18:31;18.96;51.40
68177;DHT22;56478;50.982;7.032;2024-03-06T10:20:57;19.90;48.42
68177;DHT22;56478;50.982;7.032;2024-03-06T10:23:23;20.86;46.00
68177;DHT22;56478;50.982;7.032;2024-03-06T10:25:50;20.00;46.25
68177;DHT22;56478;50.982;7.032;2024-03-06T10:28:17;19.38;48.75
68177;DHT22;56478;50.982;7.032;2024-03-06T10:30:43;19.54;47.86
68177;DHT22;56478;50.982;7.032;2024-03-06T10:33:10;18.48;50.53
68177;DHT22;56478;50.982;7.032;2024-03-06T10:35:36;18.90;49.81
68177;DHT22;56478;50.982;7.032;2024-03-06T10:38:06;20.13;47.60
68177;DHT22;56478;50.982;7.032;2024-03-06T10:40:34;20.59;45.87
68177;DHT22;56478;50.982;7.032;2024-03-06T10:43:01;18.79;49.98
68177;DHT22;56478;50.982;7.032;2024-03-06T10:45:49;18.00;52.04
68177;DHT22;56478;50.982;7.032;2024-03-06T10:48:17;18.93;50.09
68177;DHT22;56478;50.982;7.032;2024-03-06T10:50:44;19.69;48.14
68177;DHT22;56478;50.982;7.032;2024-03-06T10:53:11;20.31;46.50
68177;DHT22;56478;50.982;7.032;2024-03-06T10:55:38;19.57;48.31
68177;DHT22;56478;50.982;7.032;2024-03-06T10:58:08;19.04;49.41
68177;DHT22;56478;50.982;7.032;2024-03-06T11:00:41;18.65;49.60
68177;DHT22;56478;50.982;7.032;2024-03-06T11:03:08;17.51;54.22
68177;DHT22;56478;50.982;7.032;2024-03-06T11:05:38;16.82;55.26
68177;DHT22;56478;50.982;7.032;2024-03-06T11:08:11;16.20;56.19
68177;DHT22;56478;50.982;7.032;2024-03-06T11:10:38;15.61;58.93
68177;DHT22;56478;50.982;7.032;2024-03-06T11:13:30;15.83;57.91
68177;DHT22;56478;50.982;7.032;2024-03-06T11:15:57;15.36;58.74
68177;DHT22;56478;50.982;7.032;2024-03-06T11:23:27;15.74;58.78
68177;DHT22;56478;50.982;7.032;2024-03-06T11:28:26;16.09;59.26
68177;DHT22;56478;50.982;7.032;2024-03-06T11:30:57;16.06;58.23
68177;DHT22;56478;50.982;7.032;2024-03-06T11:33:37;16.28;55.80
68177;DHT22;56478;50.982;7.032;2024-03-06T11:36:19;15.93;58.02
68177;DHT22;56478;50.982;7.032;2024-03-06T11:39:05;15.81;59.24
68177;DHT22;56478;50.982;7.032;2024-03-06T11:41:47;15.02;59.93
68177;DHT22;56478;50.982;7.032;2024-03-06T11:44:20;14.92;60.93
68177;DHT22;56478;50.982;7.032;2024-03-06T11:46:57;15.36;59.98
68177;DHT22;56478;50.982;7.032;2024-03-06T11:49:25;15.66;58.44
68177;DHT22;56478;50.982;7.032;2024-03-06T11:51:52;15.79;57.24
68177;DHT22;56478;50.982;7.032;2024-03-06T11:54:18;15.41;59.26
68177;DHT22;56478;50.982;7.032;2024-03-06T11:56:48;15.50;58.61
68177;DHT22;56478;50.982;7.032;2024-03-06T11:59:17;15.27;58.93
68177;DHT22;56478;50.982;7.032;2024-03-06T12:01:42;15.02;60.37
68177;DHT22;56478;50.982;7.032;2024-03-06T12:04:08;15.43;59.38
68177;DHT22;56478;50.982;7.032;2024-03-06T12:06:34;15.71;57.78
68177;DHT22;56478;50.982;7.032;2024-03-06T12:09:00;15.37;60.07
68177;DHT22;56478;50.982;7.032;2024-03-06T12:11:25;15.31;60.41
68177;DHT22;56478;50.982;7.032;2024-03-06T12:13:53;15.03;60.91
68177;DHT22;56478;50.982;7.032;2024-03-06T12:16:19;14.92;61.86
68177;DHT22;56478;50.982;7.032;2024-03-06T12:18:45;14.82;61.74
68177;DHT22;56478;50.982;7.032;2024-03-06T12:21:11;15.07;62.67
68177;DHT22;56478;50.982;7.032;2024-03-06T12:23:39;15.27;61.65
68177;DHT22;56478;50.982;7.032;2024-03-06T12:26:09;15.43;60.27
68177;DHT22;56478;50.982;7.032;2024-03-06T12:28:37;15.53;60.30
68177;DHT22;56478;50.982;7.032;2024-03-06T12:31:04;15.54;58.73
68177;DHT22;56478;50.982;7.032;2024-03-06T12:33:30;15.51;59.59
68177;DHT22;56478;50.982;7.032;2024-03-06T12:36:06;15.34;58.62
68177;DHT22;56478;50.982;7.032;2024-03-06T12:38:38;15.27;56.63
68177;DHT22;56478;50.982;7.032;2024-03-06T12:41:04;15.20;55.57
68177;DHT22;56478;50.982;7.032;2024-03-06T12:43:31;15.03;56.92
68177;DHT22;56478;50.982;7.032;2024-03-06T12:45:58;14.89;55.36
68177;DHT22;56478;50.982;7.032;2024-03-06T12:48:24;15.26;55.34
68177;DHT22;56478;50.982;7.032;2024-03-06T12:50:51;15.07;56.11
68177;DHT22;56478;50.982;7.032;2024-03-06T12:53:20;15.10;55.07
68177;DHT22;56478;50.982;7.032;2024-03-06T12:55:46;14.95;55.26
68177;DHT22;56478;50.982;7.032;2024-03-06T12:58:12;15.10;56.48
68177;DHT22;56478;50.982;7.032;2024-03-06T13:00:38;14.88;55.40
68177;DHT22;56478;50.982;7.032;2024-03-06T13:03:05;15.20;57.26
68177;DHT22;56478;50.982;7.032;2024-03-06T13:05:30;15.50;57.18
68177;DHT22;56478;50.982;7.032;2024-03-06T13:07:57;15.85;56.10
68177;DHT22;56478;50.982;7.032;2024-03-06T13:10:23;16.19;54.94
68177;DHT22;56478;50.982;7.032;2024-03-06T13:12:48;15.86;52.48
68177;DHT22;56478;50.982;7.032;2024-03-06T13:15:14;16.14;55.57
68177;DHT22;56478;50.982;7.032;2024-03-06T13:17:39;16.33;55.02
68177;DHT22;56478;50.982;7.032;2024-03-06T13:20:07;16.28;54.37
68177;DHT22;56478;50.982;7.032;2024-03-06T13:22:37;16.16;54.50
68177;DHT22;56478;50.982;7.032;2024-03-06T13:25:03;16.03;56.13
68177;DHT22;56478;50.982;7.032;2024-03-06T13:27:30;15.77;55.31
68177;DHT22;56478;50.982;7.032;2024-03-06T13:29:56;15.31;55.27
68177;DHT22;56478;50.982;7.032;2024-03-06T13:32:21;14.99;56.45
68177;DHT22;56478;50.982;7.032;2024-03-06T13:34:48;15.06;55.32
68177;DHT22;56478;50.982;7.032;2024-03-06T13:37:14;14.98;56.47
68177;DHT22;56478;50.982;7.032;2024-03-06T13:39:40;15.02;54.97
68177;DHT22;56478;50.982;7.032;2024-03-06T13:42:06;15.02;54.47
68177;DHT22;56478;50.982;7.032;2024-03-06T13:44:34;14.95;53.30
68177;DHT22;56478;50.982;7.032;2024-03-06T13:47:00;15.13;53.39
68177;DHT22;56478;50.982;7.032;2024-03-06T13:52:01;14.92;51.77
68177;DHT22;56478;50.982;7.032;2024-03-06T13:54:26;14.65;53.52
68177;DHT22;56478;50.982;7.032;2024-03-06T13:56:52;14.74;54.31
68177;DHT22;56478;50.982;7.032;2024-03-06T13:59:21;15.06;51.74
68177;DHT22;56478;50.982;7.032;2024-03-06T14:01:47;15.16;49.98
68177;DHT22;56478;50.982;7.032;2024-03-06T14:04:14;14.95;48.71
68177;DHT22;56478;50.982;7.032;2024-03-06T14:06:39;14.95;50.23
68177;DHT22;56478;50.982;7.032;2024-03-06T14:09:05;14.99;49.60
68177;DHT22;56478;50.982;7.032;2024-03-06T14:11:33;15.02;47.39
68177;DHT22;56478;50.982;7.032;2024-03-06T14:14:00;14.91;49.49
68177;DHT22;56478;50.982;7.032;2024-03-06T14:16:26;15.23;50.87
68177;DHT22;56478;50.982;7.032;2024-03-06T14:18:52;15.39;50.97
68177;DHT22;56478;50.982;7.032;2024-03-06T14:21:19;15.50;51.10
68177;DHT22;56478;50.982;7.032;2024-03-06T14:23:44;15.36;50.54
68177;DHT22;56478;50.982;7.032;2024-03-06T14:26:10;15.30;50.81
68177;DHT22;56478;50.982;7.032;2024-03-06T14:28:36;15.34;50.90
68177;DHT22;56478;50.982;7.032;2024-03-06T14:31:05;15.43;51.61
68177;DHT22;56478;50.982;7.032;2024-03-06T14:33:30;15.44;50.32
68177;DHT22;56478;50.982;7.032;2024-03-06T14:35:56;15.57;49.93
68177;DHT22;56478;50.982;7.032;2024-03-06T14:38:22;15.65;50.55
68177;DHT22;56478;50.982;7.032;2024-03-06T14:40:47;16.06;52.55
68177;DHT22;56478;50.982;7.032;2024-03-06T14:43:13;16.43;50.81
68177;DHT22;56478;50.982;7.032;2024-03-06T14:45:38;16.51;49.59
68177;DHT22;56478;50.982;7.032;2024-03-06T14:48:08;16.64;50.44
68177;DHT22;56478;50.982;7.032;2024-03-06T14:50:33;16.86;49.22
68177;DHT22;56478;50.982;7.032;2024-03-06T14:52:59;16.90;48.63
68177;DHT22;56478;50.982;7.032;2024-03-06T14:55:25;16.78;49.00
68177;DHT22;56478;50.982;7.032;2024-03-06T14:57:50;16.76;49.64
68177;DHT22;56478;50.982;7.032;2024-03-06T15:00:16;16.62;50.97
68177;DHT22;56478;50.982;7.032;2024-03-06T15:02:43;16.40;49.71
68177;DHT22;56478;50.982;7.032;2024-03-06T15:05:09;16.26;49.78
68177;DHT22;56478;50.982;7.032;2024-03-06T15:07:38;16.10;51.07
68177;DHT22;56478;50.982;7.032;2024-03-06T15:10:07;15.82;50.20
68177;DHT22;56478;50.982;7.032;2024-03-06T15:12:34;15.69;50.15
68177;DHT22;56478;50.982;7.032;2024-03-06T15:15:01;15.81;51.05
68177;DHT22;56478;50.982;7.032;2024-03-06T15:17:28;15.71;52.33
68177;DHT22;56478;50.982;7.032;2024-03-06T15:19:53;15.65;51.79
68177;DHT22;56478;50.982;7.032;2024-03-06T15:22:19;15.54;52.56
68177;DHT22;56478;50.982;7.032;2024-03-06T15:24:45;15.78;50.74
68177;DHT22;56478;50.982;7.032;2024-03-06T15:27:11;15.78;51.19
68177;DHT22;56478;50.982;7.032;2024-03-06T15:29:37;15.72;50.70
68177;DHT22;56478;50.982;7.032;2024-03-06T15:32:03;15.61;50.63
68177;DHT22;56478;50.982;7.032;2024-03-06T15:34:29;15.40;50.96
68177;DHT22;56478;50.982;7.032;2024-03-06T15:36:55;15.24;51.52
68177;DHT22;56478;50.982;7.032;2024-03-06T15:39:21;15.29;52.70
68177;DHT22;56478;50.982;7.032;2024-03-06T15:41:47;15.27;53.18
68177;DHT22;56478;50.982;7.032;2024-03-06T15:44:12;15.05;53.51
68177;DHT22;56478;50.982;7.032;2024-03-06T15:46:38;14.92;53.59
68177;DHT22;56478;50.982;7.032;2024-03-06T15:49:07;14.68;55.78